createdAt,value
2019-06-18T00:00:33.248Z,19.60
2019-06-18T00:03:01.120Z,19.60
2019-06-18T00:05:31.236Z,19.50
2019-06-18T00:08:00.775Z,19.30
2019-06-18T00:10:27.138Z,19.30
2019-06-18T00:12:54.373Z,19.30
2019-06-18T00:15:21.607Z,19.40
2019-06-18T00:17:50.721Z,19.30
2019-06-18T00:20:20.445Z,19.20
2019-06-18T00:22:46.857Z,19.20
2019-06-18T00:25:14.089Z,19.30
2019-06-18T00:27:41.434Z,19.20
2019-06-18T00:30:11.146Z,19.20
2019-06-18T00:32:37.989Z,19.20
2019-06-18T00:35:06.316Z,19.20
2019-06-18T00:37:33.838Z,19.30
2019-06-18T00:40:01.204Z,19.30
2019-06-18T00:42:28.426Z,19.20
2019-06-18T00:44:56.668Z,19.20
2019-06-18T00:47:24.101Z,19.10
2019-06-18T00:49:51.617Z,19.00
2019-06-18T00:52:19.075Z,19.00
2019-06-18T00:54:48.213Z,19.10
2019-06-18T00:57:17.664Z,18.90
2019-06-18T00:59:47.013Z,18.90
2019-06-18T01:02:13.706Z,18.90
2019-06-18T01:04:40.949Z,18.80
2019-06-18T01:07:08.457Z,18.80
2019-06-18T01:09:37.242Z,18.70
2019-06-18T01:12:06.862Z,18.70
2019-06-18T01:14:36.455Z,18.60
2019-06-18T01:17:03.116Z,18.60
2019-06-18T01:19:30.406Z,18.50
2019-06-18T01:21:57.604Z,18.40
2019-06-18T01:24:24.642Z,18.40
2019-06-18T01:26:52.195Z,18.30
2019-06-18T01:29:19.513Z,18.20
2019-06-18T01:31:47.095Z,18.10
2019-06-18T01:34:14.402Z,18.00
2019-06-18T01:36:43.228Z,18.00
2019-06-18T01:39:13.154Z,18.00
2019-06-18T01:41:40.021Z,17.90
2019-06-18T01:44:07.259Z,17.80
2019-06-18T01:46:38.473Z,17.80
2019-06-18T01:49:03.849Z,17.90
2019-06-18T01:51:33.361Z,17.70
2019-06-18T01:54:02.575Z,17.70
2019-06-18T01:56:29.598Z,17.70
2019-06-18T01:58:57.045Z,17.60
2019-06-18T02:01:24.277Z,17.60
2019-06-18T02:03:52.944Z,17.50
2019-06-18T02:06:20.297Z,17.50
2019-06-18T02:08:47.550Z,17.40
2019-06-18T02:11:14.766Z,17.30
2019-06-18T02:13:42.569Z,17.30
2019-06-18T02:16:12.968Z,17.30
2019-06-18T02:18:39.197Z,17.30
2019-06-18T02:21:06.426Z,17.30
2019-06-18T02:23:33.544Z,17.20
2019-06-18T02:26:02.534Z,17.10
2019-06-18T02:28:33.072Z,17.10
2019-06-18T02:30:59.403Z,17.00
2019-06-18T02:33:26.810Z,17.00
2019-06-18T02:35:54.043Z,16.80
2019-06-18T02:38:23.452Z,16.80
2019-06-18T02:40:52.800Z,16.90
2019-06-18T02:43:22.164Z,16.90
2019-06-18T02:45:49.442Z,16.90
2019-06-18T02:48:16.818Z,16.80
2019-06-18T02:50:44.015Z,16.90
2019-06-18T02:53:13.098Z,16.90
2019-06-18T02:55:40.552Z,16.80
2019-06-18T02:58:07.797Z,16.90
2019-06-18T03:00:46.493Z,16.70
2019-06-18T03:03:13.789Z,16.70
2019-06-18T03:05:42.668Z,16.60
2019-06-18T03:08:12.447Z,16.70
2019-06-18T03:10:39.193Z,16.60
2019-06-18T03:13:06.418Z,16.60
2019-06-18T03:15:33.720Z,16.70
2019-06-18T03:18:02.444Z,16.80
2019-06-18T03:20:30.045Z,16.70
2019-06-18T03:22:57.433Z,16.60
2019-06-18T03:25:24.669Z,16.70
2019-06-18T03:27:52.847Z,16.70
2019-06-18T03:30:23.879Z,16.60
2019-06-18T03:32:49.742Z,16.70
2019-06-18T03:35:18.890Z,16.60
2019-06-18T03:37:46.149Z,16.60
2019-06-18T03:40:13.253Z,16.50
2019-06-18T03:42:42.542Z,16.60
2019-06-18T03:45:09.591Z,16.70
2019-06-18T03:47:45.934Z,16.50
2019-06-18T03:50:05.972Z,16.60
2019-06-18T03:52:33.307Z,16.50
2019-06-18T03:55:03.626Z,16.50
2019-06-18T03:57:29.793Z,16.50
2019-06-18T03:59:57.059Z,16.60
2019-06-18T04:02:24.602Z,16.70
2019-06-18T04:04:52.969Z,16.70
2019-06-18T04:07:22.449Z,16.70
2019-06-18T04:09:49.871Z,16.80
2019-06-18T04:12:17.009Z,16.80
2019-06-18T04:14:44.061Z,16.90
2019-06-18T04:17:12.759Z,16.90
2019-06-18T04:19:43.284Z,17.00
2019-06-18T04:22:09.581Z,17.10
2019-06-18T04:24:36.943Z,17.10
2019-06-18T04:27:04.179Z,17.10
2019-06-18T04:29:33.509Z,17.10
2019-06-18T04:32:02.697Z,17.30
2019-06-18T04:34:32.480Z,17.30
2019-06-18T04:36:59.236Z,17.40
2019-06-18T04:39:26.359Z,17.50
2019-06-18T04:41:53.618Z,17.60
2019-06-18T04:44:22.694Z,17.60
2019-06-18T04:46:49.961Z,17.70
2019-06-18T04:49:17.238Z,17.70
2019-06-18T04:51:44.341Z,17.80
2019-06-18T04:54:13.609Z,17.90
2019-06-18T04:56:43.187Z,18.00
2019-06-18T04:59:12.954Z,18.50
2019-06-18T05:01:39.092Z,18.80
2019-06-18T05:04:06.317Z,19.00
2019-06-18T05:06:33.388Z,19.10
2019-06-18T05:09:02.986Z,19.30
2019-06-18T05:11:29.762Z,19.40
2019-06-18T05:13:57.205Z,19.60
2019-06-18T05:16:24.245Z,19.60
2019-06-18T05:18:53.287Z,19.80
2019-06-18T05:21:22.298Z,19.90
2019-06-18T05:23:49.718Z,20.00
2019-06-18T05:26:16.752Z,20.10
2019-06-18T05:28:44.010Z,20.30
2019-06-18T05:31:13.606Z,20.40
2019-06-18T05:33:42.510Z,20.50
2019-06-18T05:36:09.558Z,20.60
2019-06-18T05:38:36.798Z,20.70
2019-06-18T05:41:04.072Z,20.80
2019-06-18T05:43:32.829Z,20.90
2019-06-18T05:46:00.165Z,21.00
2019-06-18T05:48:27.366Z,21.20
2019-06-18T05:50:54.889Z,21.20
2019-06-18T05:53:22.492Z,21.30
2019-06-18T05:55:52.417Z,21.40
2019-06-18T05:58:19.206Z,21.50
2019-06-18T06:00:46.555Z,21.50
2019-06-18T06:03:14.058Z,21.60
2019-06-18T06:05:42.170Z,21.70
2019-06-18T06:08:10.042Z,21.70
2019-06-18T06:10:37.211Z,21.80
2019-06-18T06:13:04.449Z,22.00
2019-06-18T06:15:32.914Z,22.10
2019-06-18T06:18:02.534Z,22.20
2019-06-18T06:20:29.400Z,22.30
2019-06-18T06:22:56.612Z,22.40
2019-06-18T06:25:24.575Z,22.40
2019-06-18T06:27:52.819Z,22.70
2019-06-18T06:30:22.884Z,22.90
2019-06-18T06:32:49.758Z,22.90
2019-06-18T06:35:16.894Z,22.90
2019-06-18T06:37:44.104Z,23.20
2019-06-18T06:40:13.066Z,23.40
2019-06-18T06:42:42.635Z,23.40
2019-06-18T06:45:09.570Z,23.50
2019-06-18T06:47:37.069Z,23.50
2019-06-18T06:50:05.945Z,23.80
2019-06-18T06:52:33.345Z,23.70
2019-06-18T06:55:03.220Z,23.80
2019-06-18T06:57:32.637Z,24.20
2019-06-18T06:59:59.131Z,24.40
2019-06-18T07:02:26.433Z,24.30
2019-06-18T07:04:53.569Z,24.60
2019-06-18T07:07:20.665Z,24.60
2019-06-18T07:09:48.024Z,24.80
2019-06-18T07:12:15.274Z,24.80
2019-06-18T07:14:42.997Z,24.90
2019-06-18T07:17:12.555Z,25.10
2019-06-18T07:19:52.425Z,25.20
2019-06-18T07:22:09.152Z,25.50
2019-06-18T07:24:36.466Z,25.60
2019-06-18T07:27:03.713Z,25.70
2019-06-18T07:29:32.382Z,25.80
2019-06-18T07:32:02.399Z,25.80
2019-06-18T07:34:29.241Z,25.70
2019-06-18T07:36:56.568Z,25.80
2019-06-18T07:39:23.801Z,25.90
2019-06-18T07:41:53.338Z,26.00
2019-06-18T07:44:20.020Z,26.20
2019-06-18T07:46:47.139Z,26.00
2019-06-18T07:49:14.710Z,26.30
2019-06-18T07:51:42.489Z,26.50
2019-06-18T07:54:12.356Z,26.60
2019-06-18T07:56:39.073Z,26.70
2019-06-18T07:59:06.311Z,26.80
2019-06-18T08:01:33.883Z,26.80
2019-06-18T08:04:03.181Z,26.70
2019-06-18T08:06:32.872Z,26.60
2019-06-18T08:08:59.532Z,26.80
2019-06-18T08:11:26.729Z,27.00
2019-06-18T08:13:54.277Z,27.00
2019-06-18T08:16:23.310Z,27.10
2019-06-18T08:18:52.876Z,27.00
2019-06-18T08:21:19.940Z,26.80
2019-06-18T08:23:47.228Z,26.70
2019-06-18T08:26:14.461Z,26.60
2019-06-18T08:28:43.395Z,26.90
2019-06-18T08:31:13.054Z,27.20
2019-06-18T08:33:42.460Z,27.10
2019-06-18T08:36:09.591Z,27.10
2019-06-18T08:38:38.554Z,27.20
2019-06-18T08:41:05.812Z,27.40
2019-06-18T08:43:33.294Z,27.30
2019-06-18T08:46:02.739Z,27.50
2019-06-18T08:48:29.865Z,27.70
2019-06-18T08:50:57.810Z,27.80
2019-06-18T08:53:25.189Z,27.70
2019-06-18T08:55:52.790Z,27.60
2019-06-18T08:58:22.579Z,27.90
2019-06-18T09:00:49.257Z,28.20
2019-06-18T09:03:25.531Z,28.20
2019-06-18T09:05:46.101Z,28.10
2019-06-18T09:08:13.626Z,28.30
2019-06-18T09:10:42.423Z,28.30
2019-06-18T09:13:09.858Z,28.70
2019-06-18T09:15:37.051Z,28.60
2019-06-18T09:18:04.268Z,28.80
2019-06-18T09:20:33.814Z,29.30
2019-06-18T09:23:03.178Z,29.60
2019-06-18T09:25:30.033Z,30.10
2019-06-18T09:27:57.279Z,31.60
2019-06-18T09:30:28.119Z,34.00
2019-06-18T09:32:55.758Z,37.30
2019-06-18T09:35:23.080Z,41.00
2019-06-18T09:37:50.289Z,43.70
2019-06-18T09:40:17.467Z,45.70
2019-06-18T09:42:44.665Z,46.30
2019-06-18T09:45:13.603Z,45.60
2019-06-18T09:47:42.461Z,44.90
2019-06-18T09:50:12.830Z,44.00
2019-06-18T09:52:39.693Z,41.90
2019-06-18T09:55:06.983Z,39.80
2019-06-18T09:57:34.217Z,37.60
2019-06-18T10:00:02.989Z,35.50
2019-06-18T10:02:32.628Z,34.40
2019-06-18T10:04:59.698Z,33.40
2019-06-18T10:07:26.949Z,32.50
2019-06-18T10:09:54.282Z,32.10
2019-06-18T10:12:22.885Z,31.90
2019-06-18T10:14:50.259Z,31.70
2019-06-18T10:17:17.454Z,31.30
2019-06-18T10:19:44.686Z,31.00
2019-06-18T10:22:14.048Z,31.00
2019-06-18T10:24:42.309Z,31.00
2019-06-18T10:27:09.749Z,31.00
2019-06-18T10:29:57.795Z,31.00
2019-06-18T10:32:06.061Z,30.50
2019-06-18T10:34:33.330Z,30.50
2019-06-18T10:37:00.621Z,30.20
2019-06-18T10:39:27.828Z,30.10
2019-06-18T10:41:55.074Z,30.10
2019-06-18T10:44:23.133Z,30.40
2019-06-18T10:46:52.683Z,30.50
2019-06-18T10:49:19.429Z,30.40
2019-06-18T10:51:56.494Z,30.30
2019-06-18T10:54:16.054Z,30.50
2019-06-18T10:56:43.359Z,30.70
2019-06-18T10:59:10.485Z,30.70
2019-06-18T11:01:37.817Z,30.70
2019-06-18T11:04:05.069Z,30.90
2019-06-18T11:06:33.018Z,31.20
2019-06-18T11:09:02.741Z,31.30
2019-06-18T11:11:29.683Z,31.10
2019-06-18T11:14:07.738Z,31.10
2019-06-18T11:16:26.144Z,31.30
2019-06-18T11:18:53.403Z,31.30
2019-06-18T11:21:22.734Z,31.60
2019-06-18T11:23:49.862Z,31.80
2019-06-18T11:26:17.060Z,31.90
2019-06-18T11:28:44.397Z,31.80
2019-06-18T11:31:13.922Z,31.80
2019-06-18T11:33:41.080Z,32.10
2019-06-18T11:36:08.211Z,31.80
2019-06-18T11:38:35.425Z,31.50
2019-06-18T11:41:02.993Z,31.30
2019-06-18T11:43:30.385Z,31.30
2019-06-18T11:45:57.743Z,31.20
2019-06-18T11:48:24.957Z,31.10
2019-06-18T11:50:52.777Z,31.30
2019-06-18T11:53:22.689Z,31.60
2019-06-18T11:55:49.580Z,31.90
2019-06-18T11:58:17.084Z,31.90
2019-06-18T12:00:44.299Z,31.90
2019-06-18T12:03:13.094Z,32.20
2019-06-18T12:05:42.921Z,32.30
2019-06-18T12:08:09.703Z,32.40
2019-06-18T12:10:36.905Z,32.40
2019-06-18T12:13:04.069Z,32.50
2019-06-18T12:15:33.894Z,32.40
2019-06-18T12:18:01.179Z,32.30
2019-06-18T12:20:28.498Z,32.10
2019-06-18T12:22:55.737Z,31.60
2019-06-18T12:25:23.001Z,31.30
2019-06-18T12:27:53.052Z,31.60
2019-06-18T12:30:22.451Z,31.60
2019-06-18T12:32:54.336Z,32.10
2019-06-18T12:35:17.713Z,32.30
2019-06-18T12:37:44.891Z,32.50
2019-06-18T12:40:13.410Z,32.60
2019-06-18T12:42:42.852Z,32.60
2019-06-18T12:45:12.714Z,32.80
2019-06-18T12:47:42.798Z,33.00
2019-06-18T12:50:09.569Z,33.50
2019-06-18T12:52:36.865Z,34.20
2019-06-18T12:55:04.989Z,35.60
2019-06-18T12:57:32.378Z,35.90
2019-06-18T12:59:59.694Z,36.30
2019-06-18T13:02:26.914Z,36.50
2019-06-18T13:04:54.406Z,36.70
2019-06-18T13:07:22.907Z,37.10
2019-06-18T13:09:52.746Z,38.40
2019-06-18T13:12:19.369Z,38.80
2019-06-18T13:14:46.540Z,38.40
2019-06-18T13:17:13.734Z,38.20
2019-06-18T13:19:42.151Z,38.30
2019-06-18T13:22:13.248Z,38.20
2019-06-18T13:24:38.736Z,39.50
2019-06-18T13:27:05.893Z,41.80
2019-06-18T13:29:33.174Z,44.60
2019-06-18T13:32:00.298Z,46.10
2019-06-18T13:34:27.499Z,47.30
2019-06-18T13:36:54.677Z,46.30
2019-06-18T13:39:22.459Z,43.50
2019-06-18T13:41:53.319Z,41.80
2019-06-18T13:44:20.077Z,43.70
2019-06-18T13:46:47.504Z,46.50
2019-06-18T13:49:14.753Z,48.90
2019-06-18T13:51:44.021Z,50.80
2019-06-18T13:54:15.088Z,52.30
2019-06-18T13:56:40.174Z,53.20
2019-06-18T13:59:07.407Z,53.90
2019-06-18T14:01:34.596Z,52.10
2019-06-18T14:04:03.662Z,47.90
2019-06-18T14:06:33.428Z,45.60
2019-06-18T14:09:02.346Z,42.70
2019-06-18T14:11:32.397Z,40.80
2019-06-18T14:13:59.029Z,40.60
2019-06-18T14:16:29.046Z,42.70
2019-06-18T14:18:55.626Z,42.60
2019-06-18T14:21:22.864Z,41.10
2019-06-18T14:24:00.544Z,39.50
2019-06-18T14:26:19.093Z,39.30
2019-06-18T14:28:46.394Z,40.40
2019-06-18T14:31:13.517Z,41.90
2019-06-18T14:33:40.757Z,42.80
2019-06-18T14:36:08.398Z,43.90
2019-06-18T14:38:38.029Z,45.40
2019-06-18T14:41:14.013Z,46.60
2019-06-18T14:43:36.660Z,46.50
2019-06-18T14:46:04.103Z,46.10
2019-06-18T14:48:31.924Z,45.10
2019-06-18T14:50:59.197Z,45.00
2019-06-18T14:53:28.489Z,44.70
2019-06-18T14:55:55.517Z,44.00
2019-06-18T14:58:22.711Z,43.20
2019-06-18T15:00:49.961Z,42.50
2019-06-18T15:03:18.209Z,41.80
2019-06-18T15:05:45.424Z,40.60
2019-06-18T15:08:12.933Z,39.60
2019-06-18T15:10:40.225Z,39.60
2019-06-18T15:13:07.450Z,40.00
2019-06-18T15:15:34.533Z,39.40
2019-06-18T15:18:03.760Z,38.60
2019-06-18T15:20:33.181Z,38.10
2019-06-18T15:23:00.470Z,37.60
2019-06-18T15:25:27.732Z,36.90
2019-06-18T15:27:54.927Z,36.40
2019-06-18T15:30:22.004Z,36.00
2019-06-18T15:32:49.637Z,35.50
2019-06-18T15:35:16.936Z,35.00
2019-06-18T15:37:44.170Z,34.10
2019-06-18T15:40:13.500Z,33.60
2019-06-18T15:42:43.283Z,33.30
2019-06-18T15:45:13.315Z,33.00
2019-06-18T15:47:42.926Z,32.70
2019-06-18T15:50:09.768Z,32.50
2019-06-18T15:52:36.981Z,32.60
2019-06-18T15:55:04.320Z,32.50
2019-06-18T15:57:35.521Z,32.30
2019-06-18T16:00:00.849Z,32.20
2019-06-18T16:02:28.160Z,32.10
2019-06-18T16:04:55.497Z,32.20
2019-06-18T16:07:22.888Z,32.50
2019-06-18T16:09:50.216Z,32.70
2019-06-18T16:12:17.450Z,32.80
2019-06-18T16:14:44.685Z,33.00
2019-06-18T16:17:12.458Z,33.00
2019-06-18T16:19:42.513Z,32.90
2019-06-18T16:22:09.328Z,32.70
2019-06-18T16:24:36.670Z,32.70
2019-06-18T16:27:03.999Z,32.60
2019-06-18T16:29:33.004Z,32.50
2019-06-18T16:32:00.429Z,32.50
2019-06-18T16:34:27.643Z,32.30
2019-06-18T16:36:54.849Z,32.00
2019-06-18T16:39:23.285Z,31.90
2019-06-18T16:41:53.120Z,31.80
2019-06-18T16:44:20.496Z,31.80
2019-06-18T16:46:47.751Z,31.70
2019-06-18T16:49:14.936Z,31.60
2019-06-18T16:51:43.354Z,31.50
2019-06-18T16:54:12.863Z,31.50
2019-06-18T16:56:42.538Z,31.50
2019-06-18T16:59:15.469Z,31.40
2019-06-18T17:01:42.853Z,31.50
2019-06-18T17:04:10.082Z,31.50
2019-06-18T17:06:37.168Z,31.50
2019-06-18T17:09:07.265Z,31.40
2019-06-18T17:11:34.566Z,31.30
2019-06-18T17:14:03.737Z,31.10
2019-06-18T17:16:31.308Z,31.00
2019-06-18T17:18:58.849Z,30.90
2019-06-18T17:21:26.914Z,30.80
2019-06-18T17:23:54.352Z,30.60
2019-06-18T17:26:35.637Z,30.70
2019-06-18T17:28:52.962Z,30.70
2019-06-18T17:31:19.809Z,30.60
2019-06-18T17:33:46.941Z,30.50
2019-06-18T17:36:14.313Z,30.60
2019-06-18T17:38:44.462Z,30.20
2019-06-18T17:41:10.797Z,30.30
2019-06-18T17:43:51.265Z,30.20
2019-06-18T17:46:07.197Z,30.00
2019-06-18T17:48:34.338Z,30.00
2019-06-18T17:51:01.541Z,29.90
2019-06-18T17:53:28.661Z,29.80
2019-06-18T17:56:01.999Z,29.40
2019-06-18T17:58:24.929Z,29.60
2019-06-18T18:00:52.275Z,29.70
2019-06-18T18:03:19.526Z,29.60
2019-06-18T18:05:48.729Z,29.40
2019-06-18T18:08:16.189Z,29.50
2019-06-18T18:10:43.499Z,29.40
2019-06-18T18:13:10.904Z,29.20
2019-06-18T18:15:38.144Z,29.10
2019-06-18T18:18:05.477Z,29.00
2019-06-18T18:20:34.361Z,29.00
2019-06-18T18:23:03.119Z,29.10
2019-06-18T18:25:32.666Z,29.20
2019-06-18T18:28:02.700Z,29.00
2019-06-18T18:30:29.636Z,29.00
2019-06-18T18:32:56.893Z,29.00
2019-06-18T18:35:24.553Z,28.90
2019-06-18T18:37:51.779Z,28.70
2019-06-18T18:40:19.036Z,28.20
2019-06-18T18:42:46.083Z,27.60
2019-06-18T18:45:13.587Z,27.10
2019-06-18T18:47:43.070Z,26.70
2019-06-18T18:50:12.923Z,26.30
2019-06-18T18:52:42.100Z,26.20
2019-06-18T18:55:09.453Z,26.20
2019-06-18T18:57:36.682Z,26.20
2019-06-18T19:00:09.211Z,26.20
2019-06-18T19:02:36.529Z,26.20
2019-06-18T19:05:04.025Z,26.20
2019-06-18T19:07:32.590Z,26.20
2019-06-18T19:09:59.954Z,26.30
2019-06-18T19:12:27.028Z,26.30
2019-06-18T19:14:54.137Z,26.30
2019-06-18T19:17:23.154Z,26.30
2019-06-18T19:19:53.160Z,26.40
2019-06-18T19:22:19.837Z,26.40
2019-06-18T19:24:47.043Z,26.40
2019-06-18T19:27:14.265Z,26.40
2019-06-18T19:29:42.915Z,26.30
2019-06-18T19:32:13.099Z,26.30
2019-06-18T19:34:39.864Z,26.30
2019-06-18T19:37:07.051Z,26.20
2019-06-18T19:39:34.146Z,26.20
2019-06-18T19:42:02.338Z,26.20
2019-06-18T19:44:29.700Z,26.10
2019-06-18T19:46:56.941Z,26.10
2019-06-18T19:49:23.949Z,26.00
2019-06-18T19:51:52.271Z,26.00
2019-06-18T19:54:22.054Z,25.90
2019-06-18T19:56:48.897Z,25.90
2019-06-18T19:59:15.941Z,25.90
2019-06-18T20:01:43.218Z,25.80
2019-06-18T20:04:13.136Z,25.70
2019-06-18T20:06:42.541Z,25.60
2019-06-18T20:09:09.461Z,25.60
2019-06-18T20:11:36.919Z,25.60
2019-06-18T20:14:08.722Z,25.50
2019-06-18T20:16:37.176Z,25.50
2019-06-18T20:19:04.558Z,25.40
2019-06-18T20:21:32.889Z,25.40
2019-06-18T20:24:03.688Z,25.30
2019-06-18T20:26:33.013Z,25.30
2019-06-18T20:29:03.197Z,25.20
2019-06-18T20:31:29.705Z,25.20
2019-06-18T20:33:57.666Z,25.10
2019-06-18T20:36:25.233Z,25.00
2019-06-18T20:38:53.143Z,25.00
2019-06-18T20:41:23.134Z,25.00
2019-06-18T20:43:53.000Z,24.90
2019-06-18T20:46:23.033Z,24.80
2019-06-18T20:48:50.368Z,24.80
2019-06-18T20:51:17.714Z,24.70
2019-06-18T20:53:45.022Z,24.60
2019-06-18T20:56:13.147Z,24.50
2019-06-18T20:58:42.293Z,24.50
2019-06-18T21:01:09.974Z,24.40
2019-06-18T21:03:37.789Z,24.30
2019-06-18T21:06:05.119Z,24.30
2019-06-18T21:08:32.611Z,24.20
2019-06-18T21:11:00.016Z,24.10
2019-06-18T21:13:27.310Z,24.00
2019-06-18T21:15:54.843Z,23.90
2019-06-18T21:18:23.382Z,23.90
2019-06-18T21:20:52.427Z,23.90
2019-06-18T21:23:22.507Z,23.70
2019-06-18T21:25:49.244Z,23.70
2019-06-18T21:28:22.692Z,23.70
2019-06-18T21:30:45.664Z,23.70
2019-06-18T21:33:13.101Z,23.60
2019-06-18T21:35:42.343Z,23.60
2019-06-18T21:38:12.015Z,23.50
2019-06-18T21:40:39.021Z,23.40
2019-06-18T21:43:06.247Z,23.30
2019-06-18T21:45:33.664Z,23.30
2019-06-18T21:48:03.051Z,23.20
2019-06-18T21:50:30.005Z,23.20
2019-06-18T21:52:57.187Z,23.20
2019-06-18T21:55:24.593Z,23.20
2019-06-18T21:57:52.472Z,23.10
2019-06-18T22:00:23.910Z,23.10
2019-06-18T22:02:52.644Z,23.00
2019-06-18T22:05:22.779Z,22.90
2019-06-18T22:07:49.257Z,22.90
2019-06-18T22:10:17.317Z,22.80
2019-06-18T22:12:44.506Z,22.80
2019-06-18T22:15:12.985Z,22.70
2019-06-18T22:17:42.643Z,22.70
2019-06-18T22:20:16.754Z,22.70
2019-06-18T22:22:44.022Z,22.60
2019-06-18T22:25:12.415Z,22.60
2019-06-18T22:27:42.448Z,22.60
2019-06-18T22:30:10.044Z,22.60
2019-06-18T22:32:37.232Z,22.50
2019-06-18T22:35:04.586Z,22.10
2019-06-18T22:37:32.783Z,21.90
2019-06-18T22:40:00.178Z,21.80
2019-06-18T22:42:27.438Z,21.60
2019-06-18T22:44:55.469Z,21.40
2019-06-18T22:47:23.099Z,21.40
2019-06-18T22:49:50.389Z,21.40
2019-06-18T22:52:17.717Z,21.20
2019-06-18T22:54:44.920Z,21.20
2019-06-18T22:57:13.711Z,21.20
2019-06-18T22:59:43.089Z,21.20
2019-06-18T23:02:12.471Z,21.10
2019-06-18T23:04:39.808Z,21.20
2019-06-18T23:07:07.072Z,21.20
2019-06-18T23:09:34.136Z,21.30
2019-06-18T23:12:02.246Z,21.30
2019-06-18T23:14:32.402Z,21.40
2019-06-18T23:16:59.511Z,21.40
2019-06-18T23:19:26.995Z,21.40
2019-06-18T23:21:54.101Z,21.30
2019-06-18T23:24:21.300Z,21.30
2019-06-18T23:26:48.656Z,21.30
2019-06-18T23:29:15.956Z,21.30
2019-06-18T23:31:43.478Z,21.30
2019-06-18T23:34:13.068Z,21.20
2019-06-18T23:36:40.257Z,21.10
2019-06-18T23:39:07.919Z,21.00
2019-06-18T23:41:35.082Z,21.00
2019-06-18T23:44:02.791Z,20.90
2019-06-18T23:46:30.201Z,20.90
2019-06-18T23:48:57.541Z,21.00
2019-06-18T23:51:24.664Z,21.00
2019-06-18T23:53:53.539Z,21.00
2019-06-18T23:56:22.761Z,20.90
2019-06-18T23:58:50.142Z,20.80
